• Join FlightAware (Why Join?)
  • Login
  • US Flag 
02:16AM EDT


 

Airport Tracker/Info


-or-


 

Live Flight TrackerFlight Track Log ✈ DAL1214 ✈ 03-May-2013 ✈ KMCI - KDTW

Flight Track Log - Related Links

Times and Time Zones

All times are in EDT time to prevent confusion due to time zone crossing. See the DAL1214 flight status page for this flight to view local times or setup timezone preferences in your user account.

Time Position Orientation Groundspeed Altitude Reporting Facility
EDT Latitude Longitude Course Direction KTS MPH feet Rate Location/Type
06:57PM 39.3167 -94.7167 47° Northeast 149 171 1,900  Level Kansas City TRACON
06:58PM 39.3333 -94.7000 38° Northeast 171 197 3,500 2,580 Climbing Kansas City TRACON
06:59PM 39.3900 -94.6406 39° Northeast 223 257 6,800 2,940 Climbing Kansas City Center
07:00PM 39.4824 -94.4612 43° Northeast  Level FlightAware Approximate
07:00PM 39.4458 -94.5653 46° Northeast 263 303 10,000  Level Kansas City Center
07:01PM 39.5627 -94.3671 41° Northeast  Level FlightAware Approximate
07:01PM 39.4964 -94.4981 46° Northeast 270 311 12,600  Level Kansas City Center
07:02PM 39.6445 -94.2750 41° Northeast  Level FlightAware Approximate
07:02PM 39.5517 -94.4286 44° Northeast 289 333 14,700  Level Kansas City Center
07:03PM 39.7203 -94.1749 47° Northeast  Level FlightAware Approximate
07:03PM 39.6275 -94.3422 41° Northeast 328 377 16,400  Level Kansas City Center
07:04PM 39.7042 -94.2600 40° Northeast 373 429 17,900 1,860 Climbing Kansas City Center
07:05PM 39.7997 -94.1592 39° Northeast 395 455 20,300 2,220 Climbing Kansas City Center
07:06PM 39.8897 -94.0689 38° Northeast 401 461 22,600 1,740 Climbing Kansas City Center
07:08PM 39.9625 -93.9603 49° Northeast 399 459 23,900 1,500 Climbing Kansas City Center
07:09PM 40.0028 -93.8258 69° East 398 458 25,700 1,620 Climbing Kansas City Center
07:10PM 40.0439 -93.6939 68° East 397 457 27,300 1,620 Climbing Kansas City Center
07:11PM 40.0942 -93.5311 68° East 403 464 29,100 1,320 Climbing Kansas City Center
07:12PM 40.1336 -93.3947 69° East 404 465 30,100 1,020 Climbing Kansas City Center
07:13PM 40.1703 -93.2558 71° East 406 467 31,200 960 Climbing Kansas City Center
07:14PM 40.2081 -93.1183 70° East 404 465 32,200 1,020 Climbing Kansas City Center
07:15PM 40.2486 -92.9708 70° East 402 463 33,400 1,020 Climbing Kansas City Center
07:16PM 40.2847 -92.8403 70° East 400 460 34,400 720 Climbing Kansas City Center
07:17PM 40.3250 -92.6925 70° East 391 450 35,000 240 Climbing Kansas City Center
07:18PM 40.3592 -92.5511 72° East 394 453 35,000  Level Kansas City Center
07:19PM 40.3958 -92.4142 71° East 396 456 35,000  Level Kansas City Center
07:20PM 40.4350 -92.2661 71° East 396 456 35,000  Level Kansas City Center
07:21PM 40.4694 -92.1303 72° East 395 455 35,000  Level Kansas City Center
07:22PM 40.5042 -91.9928 72° East 399 459 35,000  Level Kansas City Center
07:23PM 40.5383 -91.8542 72° East 400 460 35,000  Level Kansas City Center
07:24PM 40.5728 -91.7131 72° East 405 466 35,000  Level Kansas City Center
07:25PM 40.6083 -91.5731 71° East 408 470 35,000  Level Chicago Center
07:26PM 40.6422 -91.4311 72° East 409 471 35,000  Level Chicago Center
07:27PM 40.6831 -91.2667 72° East 412 474 35,000  Level Chicago Center
07:28PM 40.7175 -91.1225 72° East 411 473 35,000  Level Chicago Center
07:29PM 40.7519 -90.9786 72° East 412 474 35,000  Level Chicago Center
07:30PM 40.7889 -90.8347 71° East 413 475 35,000  Level Chicago Center
07:31PM 40.8239 -90.6886 72° East 414 476 35,000  Level Chicago Center
07:32PM 40.8578 -90.5431 73° East 414 476 35,000  Level Chicago Center
07:33PM 40.9006 -90.3689 72° East 414 476 35,000  Level Chicago Center
07:34PM 40.9314 -90.2336 73° East 415 478 35,000  Level Chicago Center
07:35PM 40.9656 -90.0883 73° East 414 476 35,000  Level Chicago Center
07:36PM 41.0033 -89.9244 73° East 420 483 35,000  Level Chicago Center
07:37PM 41.0361 -89.7756 74° East 417 480 35,000  Level Chicago Center
07:38PM 41.0708 -89.6264 73° East 419 482 35,000  Level Chicago Center
07:39PM 41.1058 -89.4772 73° East 422 486 35,000  Level Chicago Center
07:40PM 41.1394 -89.3275 73° East 423 487 35,000  Level Chicago Center
07:41PM 41.1742 -89.1717 73° East 427 491 35,000  Level Chicago Center
07:43PM 41.2147 -88.9903 73° East 429 494 35,000  Level Chicago Center
07:44PM 41.2467 -88.8397 74° East 430 495 35,000  Level Chicago Center
07:45PM 41.2781 -88.6894 74° East 425 489 35,000  Level Chicago Center
07:46PM 41.3114 -88.5375 74° East 428 493 35,000  Level Chicago Center
07:47PM 41.3442 -88.3872 74° East 428 493 35,000  Level Chicago Center
07:48PM 41.3764 -88.2364 74° East 427 491 35,000 -540 Level Chicago Center
07:49PM 41.4108 -88.0786 74° East 436 502 34,000 -540 Descending Chicago Center
07:50PM 41.4511 -87.8928 74° East 434 499 34,000  Level Chicago Center
07:51PM 41.4775 -87.7569 75° East 433 498 34,000 -420 Level Chicago Center
07:52PM 41.5161 -87.5739 74° East 431 496 33,200 -540 Descending Chicago Center
07:53PM 41.5472 -87.4214 75° East 429 494 33,000 -120 Descending Chicago Center
07:54PM 41.5786 -87.2661 75° East 433 498 33,000  Level Chicago Center
07:55PM 41.6100 -87.1111 75° East 433 498 33,000  Level Chicago Center
07:56PM 41.6406 -86.9556 75° East 435 501 33,000 -540 Level Chicago Center
07:57PM 41.6714 -86.8000 75° East 434 499 31,900 -1,320 Descending Chicago Center
07:58PM 41.7044 -86.6361 75° East 438 504 30,300 -1,440 Descending Chicago Center
07:59PM 41.7361 -86.4764 75° East 442 509 29,000 -1,740 Descending Chicago Center
08:00PM 41.7728 -86.2881 75° East 437 503 26,800 -1,920 Descending Chicago Center
08:01PM 41.8042 -86.1336 75° East 432 497 25,100 -1,500 Descending Chicago Center
08:02PM 41.8347 -85.9789 75° East 429 494 23,700 -1,320 Descending Chicago Center
08:03PM 41.8625 -85.8297 76° East 416 479 22,400 -1,380 Descending Chicago Center
08:04PM 41.8917 -85.6842 75° East 404 465 20,900 -1,320 Descending Chicago Center
08:05PM 41.9183 -85.5400 76° East 398 458 19,700 -960 Descending Chicago Center
08:06PM 41.9453 -85.3972 76° East 393 452 19,000 -360 Descending Chicago Center
08:07PM 41.9778 -85.2292 75° East 386 444 19,000  Level Chicago Center
08:08PM 41.9997 -85.1158 75° East 384 442 19,000  Level Cleveland Center
08:09PM 42.0258 -84.9750 76° East 389 448 19,000 -60 Level Cleveland Center
08:10PM 42.0522 -84.8286 76° East 389 448 18,900 -900 Descending Cleveland Center
08:11PM 42.0300 -84.7011 103° East 361 415 17,200 -1,680 Descending Cleveland Center
08:12PM 41.9756 -84.5833 122° Southeast 351 404 15,600 -1,680 Descending Cleveland Center
08:13PM 41.9422 -84.4611 110° East 356 410 13,900 -1,560 Descending Cleveland Center
08:14PM 41.9178 -84.3869 114° Southeast 359 413 13,200 -1,320 Descending Cleveland Center
08:14PM 41.9089 -84.3361 103° East 356 410 12,600 -1,320 Descending Cleveland Center
08:15PM 41.8900 -84.2792 114° Southeast 345 397 12,000 -660 Descending Cleveland Center
08:15PM 41.8747 -84.2311 113° Southeast 351 404 12,000 -120 Level Cleveland Center
08:16PM 41.8567 -84.1492 106° East 336 387 11,900 -120 Descending Cleveland Center
08:16PM 41.8450 -84.1150 115° Southeast 338 389 11,900  Level Cleveland Center
08:17PM 41.8325 -84.0447 103° East 285 328 11,900 -120 Level Cleveland Center
08:17PM 41.8378 -84.0114 78° East 317 365 11,800 -1,500 Descending Cleveland Center
08:18PM 41.8586 -83.9428 68° East 283 326 10,400 -2,040 Descending Cleveland Center
08:18PM 41.8658 -83.9069 75° East 281 323 9,800 -1,560 Descending Cleveland Center
08:19PM 41.8892 -83.8272 69° East 293 337 8,700 -1,380 Descending Cleveland Center
08:19PM 41.8917 -83.8078 80° East 281 323 8,400 -900 Descending Cleveland Center
08:20PM 41.9169 -83.7253 68° East 285 328 7,800 -720 Descending Cleveland Center
08:20PM 41.9194 -83.7061 80° East 281 323 7,700 -900 Descending Cleveland Center
08:21PM 41.9425 -83.6261 69° East 246 283 6,900 -660 Descending Cleveland Center
08:22PM 41.9736 -83.5578 59° Northeast 245 282 6,600 -600 Descending Cleveland Center
08:22PM 41.9908 -83.5361 43° Northeast 248 285 6,200 -2,100 Descending Cleveland Center
08:23PM 42.0267 -83.5128 26° Northeast 243 280 4,700 -2,100 Descending Cleveland Center
08:23PM 42.0417 -83.4994 33° Northeast 228 262 4,100 -1,500 Descending Cleveland Center
08:24PM 42.0842 -83.4733 25° Northeast 205 236 3,200 -1,500 Descending Cleveland Center